This is the latest recevied weather packets stored in our database for station/object N6RDS. If no packets are shown the sender has not sent any weather packets the latest 10 day(s).
| Time | Temp. | Humidity | Pressure | Rain* | Wind** | Luminosity | Snow |
|---|---|---|---|---|---|---|---|
| 1777658866 | 19.44° C | 21% | 1024.4 hPa | 0 mm | - | 915 W/m² | - |
| 1777658562 | 19.44° C | 22% | 1024.5 hPa | 0 mm | - | 873 W/m² | - |
| 1777658258 | 18.33° C | 23% | 1024.8 hPa | 0 mm | - | 819 W/m² | - |
| 1777657956 | 18.89° C | 23% | 1024.8 hPa | 0 mm | - | 847 W/m² | - |
| 1777657652 | 18.89° C | 23% | 1024.8 hPa | 0 mm | - | 363 W/m² | - |
| 1777657349 | 17.22° C | 24% | 1024.5 hPa | 0 mm | - | 769 W/m² | - |
| 1777657047 | 18.33° C | 22% | 1024.9 hPa | 0 mm | - | 522 W/m² | - |
| 1777656744 | 19.44° C | 22% | 1024.7 hPa | 0 mm | - | 348 W/m² | - |
| 1777656440 | 17.78° C | 22% | 1024.8 hPa | 0 mm | - | 787 W/m² | - |
| 1777656135 | 18.33° C | 22% | 1024.7 hPa | 0 mm | - | 761 W/m² | - |
| 1777655832 | 17.78° C | 23% | 1024.7 hPa | 0 mm | - | 722 W/m² | - |
| 1777655529 | 17.22° C | 24% | 1024.7 hPa | 0 mm | - | 696 W/m² | - |
| 1777655225 | 16.67° C | 25% | 1024.8 hPa | 0 mm | - | 680 W/m² | - |
| 1777654922 | 16.11° C | 25% | 1024.5 hPa | 0 mm | - | 723 W/m² | - |
| 1777654620 | 15° C | 26% | 1024.7 hPa | 0 mm | - | 496 W/m² | - |
| 1777654317 | 15° C | 26% | 1024.7 hPa | 0 mm | - | 304 W/m² | - |
| 1777654015 | 15.56° C | 26% | 1024.8 hPa | 0 mm | - | 355 W/m² | - |
| 1777653711 | 15° C | 26% | 1024.7 hPa | 0 mm | - | 371 W/m² | - |
| 1777653408 | 15° C | 28% | 1024.7 hPa | 0 mm | - | 461 W/m² | - |
| 1777653105 | 15.56° C | 26% | 1024.7 hPa | 0 mm | - | 338 W/m² | - |
| 1777652801 | 15.56° C | 26% | 1024.4 hPa | 0 mm | - | 442 W/m² | - |
| 1777652498 | 15.56° C | 27% | 1024.5 hPa | 0 mm | - | 430 W/m² | - |
| 1777652195 | 15° C | 27% | 1024.7 hPa | 0 mm | - | 407 W/m² | - |
| 1777651892 | 15° C | 27% | 1024.4 hPa | 0 mm | - | 490 W/m² | - |
| 1777651588 | 15° C | 26% | 1024.4 hPa | 0 mm | - | 534 W/m² | - |
* Rain latest hour (hover to see other rain measurements)
** Current wind speed in m/s (hover to see current wind gust speed)